8NC7 weather

Parker Field
Maysville, North Carolina, United States

Public forecast

Using degrees Fahrenheit for public forecast. Weather courtesy of forecast.io.

METAR (pilot weather report)

Closest report is Coastal Carolina Regional Airport, 14.1 nm (26.2 km) NE. Retrieved 2019/06/17 21:54 UTC (52 minutes ago):

KEWN 172154Z 17014G20KT 10SM CLR 31/22 A3002 RMK AO2 SLP164 T03060222

TAF (pilot weather forecast)

Closest forecast is Coastal Carolina Regional Airport, 14.1 nm (26.2 km) NE. Retrieved 2019/06/17 18:27 UTC (4 hours ago):

TAF KEWN 171726Z 1718/1818 19010G16KT P6SM VCTS FEW050CB FM172000 19010G18KT P6SM FEW050 FM180200 20007KT P6SM FEW250 FM181700 20008G13KT P6SM SCT050